Rickmers Dalian — V7FS3 — position and weather

sailwx.info

Track history (hours):
 
Tides and Currents Weather Stations Pressure Air Temp Water Temp Dewpoint Dewpoint Depression Visibility Wind Speed Wind Dir Waves Ship Positions

Rickmers Dalian

Last reported at 2014-Oct-22 23:29 UTC. Time now 2014-Oct-23 00:04 UTC.
Position N 53°29' E 009°59'.

Length 193 m; beam 27.8 m; draft 11.2 m.

Type: Ship. MMSI: 538090156.

Date/timePositionNaut miles runAvg speedWind from/ knotsBaromVisibWave heightAir tempDewpointWater temp
2014-Oct-22 23:29N 53°29' E 009°59'0 0.0
2014-Oct-22 22:32N 53°29' E 009°59'0 0.0
2014-Oct-22 21:32N 53°29' E 009°59'0 0.0
2014-Oct-22 20:32N 53°29' E 009°59'0 0.0
2014-Oct-22 19:31N 53°29' E 009°59'0 0.0
2014-Oct-22 18:31N 53°29' E 009°59'0 0.0
2014-Oct-22 17:28N 53°29' E 009°59'0 0.0
2014-Oct-22 16:31N 53°29' E 009°59'0 0.0
2014-Oct-22 15:31N 53°29' E 009°59'0 0.0
2014-Oct-22 14:28N 53°29' E 009°59'0 0.0
2014-Oct-22 13:31N 53°29' E 009°59'0 0.0
2014-Oct-22 12:32N 53°29' E 009°59'0 0.0
2014-Oct-22 11:31N 53°29' E 009°59'0 0.0
2014-Oct-22 10:28N 53°29' E 009°59'0 0.0
2014-Oct-22 09:31N 53°29' E 009°59'0 0.0
2014-Oct-22 08:31N 53°29' E 009°59'0 0.0
2014-Oct-22 07:32N 53°29' E 009°59'0 0.0
2014-Oct-22 06:25N 53°29' E 009°59'0 0.0
2014-Oct-22 05:25N 53°29' E 009°59'0 0.0
2014-Oct-22 04:28N 53°29' E 009°59'0 0.0
2014-Oct-22 03:31N 53°29' E 009°59'0 0.1
2014-Oct-22 02:33N 53°29' E 009°59'3 3.0
2014-Oct-22 01:34N 53°32' E 009°56'1010.0
2014-Oct-22 00:33N 53°34' E 009°40'1211.7
2014-Oct-21 23:33N 53°43' E 009°28'1413.9
2014-Oct-21 22:33N 53°53' E 009°11'1312.7
2014-Oct-21 21:33N 53°50' E 008°49'1413.7
2014-Oct-21 20:33N 53°58' E 008°31'1414.0
2014-Oct-21 19:33N 53°59' E 008°07'1616.1
2014-Oct-21 18:33N 53°56' E 007°40'1917.0
2014-Oct-21 17:27N 53°51' E 007°09'1617.0
2014-Oct-21 16:29N 53°48' E 006°42'1616.8
2014-Oct-21 15:31N 53°44' E 006°15'1616.5
2014-Oct-21 14:33N 53°39' E 005°50'1616.3
2014-Oct-21 13:33N 53°33' E 005°24'1716.6
2014-Oct-21 12:33N 53°28' E 004°58'1616.3
2014-Oct-21 11:33N 53°18' E 004°37'2617.3
2014-Oct-21 10:03N 52°55' E 004°17'917.4
2014-Oct-21 09:33N 52°47' E 004°09'1730.1
2014-Oct-21 09:00N 52°36' E 003°48'5 7.0 250 / 34998.0 2.2 3.010.8 9.217.0
2014-Oct-21 08:21N 52°32' E 003°45'1417.1
2014-Oct-21 07:33N 52°20' E 003°35'1816.7
2014-Oct-21 06:29N 52°03' E 003°25'1516.4
2014-Oct-21 05:33N 51°48' E 003°18'1514.5
2014-Oct-21 04:33N 51°35' E 003°09'1110.7
2014-Oct-21 03:34N 51°24' E 003°09'1616.3
2014-Oct-21 02:33N 51°26' E 003°35'1111.3
2014-Oct-21 01:33N 51°21' E 003°52'8 7.6
2014-Oct-21 00:33N 51°22' E 004°04'8 8.4
2014-Oct-20 23:34N 51°21' E 004°17'0 0.4
2014-Oct-20 22:33N 51°21' E 004°17'4 3.9
2014-Oct-20 21:33N 51°17' E 004°20'2 1.7
2014-Oct-20 20:31N 51°17' E 004°23'0 0.0
2014-Oct-20 19:31N 51°17' E 004°23'0 0.0
2014-Oct-20 18:31N 51°17' E 004°23'0 0.0
2014-Oct-20 17:31N 51°17' E 004°23'0 0.0
2014-Oct-20 16:31N 51°17' E 004°23'0 0.0
2014-Oct-20 15:31N 51°17' E 004°23'0 0.0
2014-Oct-20 14:31N 51°17' E 004°23'0 0.0
2014-Oct-20 13:31N 51°17' E 004°23'0 0.0
2014-Oct-20 12:31N 51°17' E 004°23'0 0.0
2014-Oct-20 11:31N 51°17' E 004°23'0 0.0
2014-Oct-20 10:31N 51°17' E 004°23'0 0.0
2014-Oct-20 09:31N 51°17' E 004°23'0 0.0
2014-Oct-20 08:31N 51°17' E 004°23'0 0.0
2014-Oct-20 07:31N 51°17' E 004°23'0 0.0
2014-Oct-20 06:31N 51°17' E 004°23'0 0.0
2014-Oct-20 05:31N 51°17' E 004°23'0 0.0
2014-Oct-20 04:31N 51°17' E 004°23'0 0.0
2014-Oct-20 03:31N 51°17' E 004°23'0 0.0
2014-Oct-20 02:31N 51°17' E 004°23'0 0.0
2014-Oct-20 01:31N 51°17' E 004°23'0 0.0
2014-Oct-20 00:31N 51°17' E 004°23'0 0.0
2014-Oct-19 23:31N 51°17' E 004°23'0 0.0
2014-Oct-19 22:33N 51°17' E 004°23'0 0.0
2014-Oct-19 21:33N 51°17' E 004°23'0 0.0
2014-Oct-19 20:33N 51°17' E 004°23'0 0.0
2014-Oct-19 19:33N 51°17' E 004°23'0 0.0
2014-Oct-19 18:33N 51°17' E 004°23'0 0.0
2014-Oct-19 17:33N 51°17' E 004°23'0 0.0
2014-Oct-19 16:30N 51°17' E 004°23'0 0.0
2014-Oct-19 15:33N 51°17' E 004°23'0 0.0
2014-Oct-19 14:33N 51°17' E 004°23'0 0.0
2014-Oct-19 13:33N 51°17' E 004°23'0 0.0
2014-Oct-19 12:33N 51°17' E 004°23'0 0.0
2014-Oct-19 11:33N 51°17' E 004°23'0 0.0
2014-Oct-19 10:33N 51°17' E 004°23'0 0.0
2014-Oct-19 09:33N 51°17' E 004°23'0 0.0
2014-Oct-19 08:33N 51°17' E 004°23'0 0.0
2014-Oct-19 07:33N 51°17' E 004°23'0 0.0
2014-Oct-19 06:27N 51°17' E 004°23'0 0.0
2014-Oct-19 05:33N 51°17' E 004°23'0 0.0
2014-Oct-19 04:33N 51°17' E 004°23'0 0.0
2014-Oct-19 03:33N 51°17' E 004°23'0 0.0
2014-Oct-19 02:33N 51°17' E 004°23'0 0.0
2014-Oct-19 01:33N 51°17' E 004°23'0 0.0
2014-Oct-19 00:33N 51°17' E 004°23'0 0.0
2014-Oct-18 23:33N 51°17' E 004°23'0 0.0
2014-Oct-18 22:33N 51°17' E 004°23'0 0.0
2014-Oct-18 21:33N 51°17' E 004°23'0 0.0
2014-Oct-18 20:33N 51°17' E 004°23'0 0.0
2014-Oct-18 19:33N 51°17' E 004°23'0 0.0
2014-Oct-18 18:33N 51°17' E 004°23'0 0.0
2014-Oct-18 17:33N 51°17' E 004°23'0 0.0
2014-Oct-18 16:33N 51°17' E 004°23'0 0.0
2014-Oct-18 15:33N 51°17' E 004°23'0 0.0
2014-Oct-18 14:33N 51°17' E 004°23'0 0.0
2014-Oct-18 13:30N 51°17' E 004°23'0 0.0
2014-Oct-18 12:33N 51°17' E 004°23'0 0.0
2014-Oct-18 11:33N 51°17' E 004°23'0 0.0
2014-Oct-18 10:33N 51°17' E 004°23'0 0.0
2014-Oct-18 09:33N 51°17' E 004°23'0 0.0
2014-Oct-18 08:33N 51°17' E 004°23'0 0.0
2014-Oct-18 07:31N 51°17' E 004°23'0 0.0
2014-Oct-18 06:31N 51°17' E 004°23'0 0.0
2014-Oct-18 05:31N 51°17' E 004°23'0 0.0
2014-Oct-18 04:31N 51°17' E 004°23'0 0.0
2014-Oct-18 03:31N 51°17' E 004°23'0 0.0
2014-Oct-18 02:31N 51°17' E 004°23'0 0.0
2014-Oct-18 01:31N 51°17' E 004°23'0 0.0
2014-Oct-18 00:31N 51°17' E 004°23'0 0.0
2014-Oct-17 23:31N 51°17' E 004°23'0 0.0
2014-Oct-17 22:28N 51°17' E 004°23'0 0.0
2014-Oct-17 21:31N 51°17' E 004°23'0 0.0
2014-Oct-17 20:31N 51°17' E 004°23'0 0.0
2014-Oct-17 19:28N 51°17' E 004°23'0 0.0
2014-Oct-17 18:31N 51°17' E 004°23'0 0.0
2014-Oct-17 17:31N 51°17' E 004°23'0 0.0
2014-Oct-17 16:31N 51°17' E 004°23'0 0.0
2014-Oct-17 15:31N 51°17' E 004°23'0 0.0
2014-Oct-17 14:31N 51°17' E 004°23'0 0.0
2014-Oct-17 13:31N 51°17' E 004°23'0 0.0
2014-Oct-17 12:31N 51°17' E 004°23'0 0.0
2014-Oct-17 11:31N 51°17' E 004°23'0 0.3
2014-Oct-17 10:33N 51°17' E 004°23'4 4.1
2014-Oct-17 09:33N 51°20' E 004°18'1 0.9
2014-Oct-17 08:33N 51°21' E 004°17'1 1.2
2014-Oct-17 07:33N 51°21' E 004°15'6 5.8
2014-Oct-17 06:33N 51°22' E 004°06'7 7.3
2014-Oct-17 05:33N 51°22' E 003°55'1010.2
2014-Oct-17 04:33N 51°26' E 003°40'8 7.7
2014-Oct-17 03:33N 51°25' E 003°28'1110.7
2014-Oct-17 02:33N 51°24' E 003°11'1212.1
2014-Oct-17 01:33N 51°22' E 002°52'1111.4
2014-Oct-17 00:33N 51°22' E 002°33'1212.2
2014-Oct-16 23:33N 51°17' E 002°16'1313.0
2014-Oct-16 22:33N 51°11' E 001°57'1313.3
2014-Oct-16 21:33N 51°04' E 001°40'1413.9
2014-Oct-16 20:34N 50°53' E 001°26'1413.6
2014-Oct-16 19:30N 50°40' E 001°17'1313.8
2014-Oct-16 18:32N 50°31' E 001°01'1313.4
2014-Oct-16 17:33N 50°27' E 000°41'1413.7
2014-Oct-16 16:31N 50°24' E 000°19'26113.1
2014-Oct-15 20:32N 47°59' W 005°13'1515.4
2014-Oct-15 19:33N 47°48' W 004°57'3215.7
2014-Oct-15 17:32N 47°35' W 004°14'1515.2
2014-Oct-15 16:33N 47°28' W 003°55'66 6.0
2014-Oct-15 05:32N 47°08' W 002°22'24212.4
2014-Oct-14 10:00N 47°18' W 008°18'29312.2 100 / 211006.0 5.4 0.517.011.517.0
2014-Oct-13 10:00N 47°30' W 015°30'   090 / 221014.0 5.4 1.015.011.317.0
Track history (hours):
 
Tides and Currents Weather Stations Pressure Air Temp Water Temp Dewpoint Dewpoint Depression Visibility Wind Speed Wind Dir Waves Ship Positions

Rickmers Dalian

Last reported at 2014-Oct-22 23:29 UTC. Time now 2014-Oct-23 00:04 UTC.
Position N 53°29' E 009°59'.

Length 193 m; beam 27.8 m; draft 11.2 m.

Type: Ship. MMSI: 538090156.

Date/timePositionNaut miles runAvg speedWind from/ knotsBaromVisibWave heightAir tempDewpointWater temp
2014-Oct-22 23:29N 53°29' E 009°59'0 0.0
2014-Oct-22 22:32N 53°29' E 009°59'0 0.0
2014-Oct-22 21:32N 53°29' E 009°59'0 0.0
2014-Oct-22 20:32N 53°29' E 009°59'0 0.0
2014-Oct-22 19:31N 53°29' E 009°59'0 0.0
2014-Oct-22 18:31N 53°29' E 009°59'0 0.0
2014-Oct-22 17:28N 53°29' E 009°59'0 0.0
2014-Oct-22 16:31N 53°29' E 009°59'0 0.0
2014-Oct-22 15:31N 53°29' E 009°59'0 0.0
2014-Oct-22 14:28N 53°29' E 009°59'0 0.0
2014-Oct-22 13:31N 53°29' E 009°59'0 0.0
2014-Oct-22 12:32N 53°29' E 009°59'0 0.0
2014-Oct-22 11:31N 53°29' E 009°59'0 0.0
2014-Oct-22 10:28N 53°29' E 009°59'0 0.0
2014-Oct-22 09:31N 53°29' E 009°59'0 0.0
2014-Oct-22 08:31N 53°29' E 009°59'0 0.0
2014-Oct-22 07:32N 53°29' E 009°59'0 0.0
2014-Oct-22 06:25N 53°29' E 009°59'0 0.0
2014-Oct-22 05:25N 53°29' E 009°59'0 0.0
2014-Oct-22 04:28N 53°29' E 009°59'0 0.0
2014-Oct-22 03:31N 53°29' E 009°59'0 0.1
2014-Oct-22 02:33N 53°29' E 009°59'3 3.0
2014-Oct-22 01:34N 53°32' E 009°56'1010.0
2014-Oct-22 00:33N 53°34' E 009°40'1211.7
2014-Oct-21 23:33N 53°43' E 009°28'1413.9
2014-Oct-21 22:33N 53°53' E 009°11'1312.7
2014-Oct-21 21:33N 53°50' E 008°49'1413.7
2014-Oct-21 20:33N 53°58' E 008°31'1414.0
2014-Oct-21 19:33N 53°59' E 008°07'1616.1
2014-Oct-21 18:33N 53°56' E 007°40'1917.0
2014-Oct-21 17:27N 53°51' E 007°09'1617.0
2014-Oct-21 16:29N 53°48' E 006°42'1616.8
2014-Oct-21 15:31N 53°44' E 006°15'1616.5
2014-Oct-21 14:33N 53°39' E 005°50'1616.3
2014-Oct-21 13:33N 53°33' E 005°24'1716.6
2014-Oct-21 12:33N 53°28' E 004°58'1616.3
2014-Oct-21 11:33N 53°18' E 004°37'2617.3
2014-Oct-21 10:03N 52°55' E 004°17'917.4
2014-Oct-21 09:33N 52°47' E 004°09'1730.1
2014-Oct-21 09:00N 52°36' E 003°48'5 7.0 250 / 34998.0 2.2 3.010.8 9.217.0
2014-Oct-21 08:21N 52°32' E 003°45'1417.1
2014-Oct-21 07:33N 52°20' E 003°35'1816.7
2014-Oct-21 06:29N 52°03' E 003°25'1516.4
2014-Oct-21 05:33N 51°48' E 003°18'1514.5
2014-Oct-21 04:33N 51°35' E 003°09'1110.7
2014-Oct-21 03:34N 51°24' E 003°09'1616.3
2014-Oct-21 02:33N 51°26' E 003°35'1111.3
2014-Oct-21 01:33N 51°21' E 003°52'8 7.6
2014-Oct-21 00:33N 51°22' E 004°04'8 8.4
2014-Oct-20 23:34N 51°21' E 004°17'0 0.4
2014-Oct-20 22:33N 51°21' E 004°17'4 3.9
2014-Oct-20 21:33N 51°17' E 004°20'2 1.7
2014-Oct-20 20:31N 51°17' E 004°23'0 0.0
2014-Oct-20 19:31N 51°17' E 004°23'0 0.0
2014-Oct-20 18:31N 51°17' E 004°23'0 0.0
2014-Oct-20 17:31N 51°17' E 004°23'0 0.0
2014-Oct-20 16:31N 51°17' E 004°23'0 0.0
2014-Oct-20 15:31N 51°17' E 004°23'0 0.0
2014-Oct-20 14:31N 51°17' E 004°23'0 0.0
2014-Oct-20 13:31N 51°17' E 004°23'0 0.0
2014-Oct-20 12:31N 51°17' E 004°23'0 0.0
2014-Oct-20 11:31N 51°17' E 004°23'0 0.0
2014-Oct-20 10:31N 51°17' E 004°23'0 0.0
2014-Oct-20 09:31N 51°17' E 004°23'0 0.0
2014-Oct-20 08:31N 51°17' E 004°23'0 0.0
2014-Oct-20 07:31N 51°17' E 004°23'0 0.0
2014-Oct-20 06:31N 51°17' E 004°23'0 0.0
2014-Oct-20 05:31N 51°17' E 004°23'0 0.0
2014-Oct-20 04:31N 51°17' E 004°23'0 0.0
2014-Oct-20 03:31N 51°17' E 004°23'0 0.0
2014-Oct-20 02:31N 51°17' E 004°23'0 0.0
2014-Oct-20 01:31N 51°17' E 004°23'0 0.0
2014-Oct-20 00:31N 51°17' E 004°23'0 0.0
2014-Oct-19 23:31N 51°17' E 004°23'0 0.0
2014-Oct-19 22:33N 51°17' E 004°23'0 0.0
2014-Oct-19 21:33N 51°17' E 004°23'0 0.0
2014-Oct-19 20:33N 51°17' E 004°23'0 0.0
2014-Oct-19 19:33N 51°17' E 004°23'0 0.0
2014-Oct-19 18:33N 51°17' E 004°23'0 0.0
2014-Oct-19 17:33N 51°17' E 004°23'0 0.0
2014-Oct-19 16:30N 51°17' E 004°23'0 0.0
2014-Oct-19 15:33N 51°17' E 004°23'0 0.0
2014-Oct-19 14:33N 51°17' E 004°23'0 0.0
2014-Oct-19 13:33N 51°17' E 004°23'0 0.0
2014-Oct-19 12:33N 51°17' E 004°23'0 0.0
2014-Oct-19 11:33N 51°17' E 004°23'0 0.0
2014-Oct-19 10:33N 51°17' E 004°23'0 0.0
2014-Oct-19 09:33N 51°17' E 004°23'0 0.0
2014-Oct-19 08:33N 51°17' E 004°23'0 0.0
2014-Oct-19 07:33N 51°17' E 004°23'0 0.0
2014-Oct-19 06:27N 51°17' E 004°23'0 0.0
2014-Oct-19 05:33N 51°17' E 004°23'0 0.0
2014-Oct-19 04:33N 51°17' E 004°23'0 0.0
2014-Oct-19 03:33N 51°17' E 004°23'0 0.0
2014-Oct-19 02:33N 51°17' E 004°23'0 0.0
2014-Oct-19 01:33N 51°17' E 004°23'0 0.0
2014-Oct-19 00:33N 51°17' E 004°23'0 0.0
2014-Oct-18 23:33N 51°17' E 004°23'0 0.0
2014-Oct-18 22:33N 51°17' E 004°23'0 0.0
2014-Oct-18 21:33N 51°17' E 004°23'0 0.0
2014-Oct-18 20:33N 51°17' E 004°23'0 0.0
2014-Oct-18 19:33N 51°17' E 004°23'0 0.0
2014-Oct-18 18:33N 51°17' E 004°23'0 0.0
2014-Oct-18 17:33N 51°17' E 004°23'0 0.0
2014-Oct-18 16:33N 51°17' E 004°23'0 0.0
2014-Oct-18 15:33N 51°17' E 004°23'0 0.0
2014-Oct-18 14:33N 51°17' E 004°23'0 0.0
2014-Oct-18 13:30N 51°17' E 004°23'0 0.0
2014-Oct-18 12:33N 51°17' E 004°23'0 0.0
2014-Oct-18 11:33N 51°17' E 004°23'0 0.0
2014-Oct-18 10:33N 51°17' E 004°23'0 0.0
2014-Oct-18 09:33N 51°17' E 004°23'0 0.0
2014-Oct-18 08:33N 51°17' E 004°23'0 0.0
2014-Oct-18 07:31N 51°17' E 004°23'0 0.0
2014-Oct-18 06:31N 51°17' E 004°23'0 0.0
2014-Oct-18 05:31N 51°17' E 004°23'0 0.0
2014-Oct-18 04:31N 51°17' E 004°23'0 0.0
2014-Oct-18 03:31N 51°17' E 004°23'0 0.0
2014-Oct-18 02:31N 51°17' E 004°23'0 0.0
2014-Oct-18 01:31N 51°17' E 004°23'0 0.0
2014-Oct-18 00:31N 51°17' E 004°23'0 0.0
2014-Oct-17 23:31N 51°17' E 004°23'0 0.0
2014-Oct-17 22:28N 51°17' E 004°23'0 0.0
2014-Oct-17 21:31N 51°17' E 004°23'0 0.0
2014-Oct-17 20:31N 51°17' E 004°23'0 0.0
2014-Oct-17 19:28N 51°17' E 004°23'0 0.0
2014-Oct-17 18:31N 51°17' E 004°23'0 0.0
2014-Oct-17 17:31N 51°17' E 004°23'0 0.0
2014-Oct-17 16:31N 51°17' E 004°23'0 0.0
2014-Oct-17 15:31N 51°17' E 004°23'0 0.0
2014-Oct-17 14:31N 51°17' E 004°23'0 0.0
2014-Oct-17 13:31N 51°17' E 004°23'0 0.0
2014-Oct-17 12:31N 51°17' E 004°23'0 0.0
2014-Oct-17 11:31N 51°17' E 004°23'0 0.3
2014-Oct-17 10:33N 51°17' E 004°23'4 4.1
2014-Oct-17 09:33N 51°20' E 004°18'1 0.9
2014-Oct-17 08:33N 51°21' E 004°17'1 1.2
2014-Oct-17 07:33N 51°21' E 004°15'6 5.8
2014-Oct-17 06:33N 51°22' E 004°06'7 7.3
2014-Oct-17 05:33N 51°22' E 003°55'1010.2
2014-Oct-17 04:33N 51°26' E 003°40'8 7.7
2014-Oct-17 03:33N 51°25' E 003°28'1110.7
2014-Oct-17 02:33N 51°24' E 003°11'1212.1
2014-Oct-17 01:33N 51°22' E 002°52'1111.4
2014-Oct-17 00:33N 51°22' E 002°33'1212.2
2014-Oct-16 23:33N 51°17' E 002°16'1313.0
2014-Oct-16 22:33N 51°11' E 001°57'1313.3
2014-Oct-16 21:33N 51°04' E 001°40'1413.9
2014-Oct-16 20:34N 50°53' E 001°26'1413.6
2014-Oct-16 19:30N 50°40' E 001°17'1313.8
2014-Oct-16 18:32N 50°31' E 001°01'1313.4
2014-Oct-16 17:33N 50°27' E 000°41'1413.7
2014-Oct-16 16:31N 50°24' E 000°19'26113.1
2014-Oct-15 20:32N 47°59' W 005°13'1515.4
2014-Oct-15 19:33N 47°48' W 004°57'3215.7
2014-Oct-15 17:32N 47°35' W 004°14'1515.2
2014-Oct-15 16:33N 47°28' W 003°55'66 6.0
2014-Oct-15 05:32N 47°08' W 002°22'24212.4
2014-Oct-14 10:00N 47°18' W 008°18'29312.2 100 / 211006.0 5.4 0.517.011.517.0
2014-Oct-13 10:00N 47°30' W 015°30'   090 / 221014.0 5.4 1.015.011.317.0

Dump ship's entire track history